Time;durP1;ratioP1;P1;durP2;ratioP2;P2;SDS_P1;SDS_P2;PMS_P1;PMS_P2;Temp;Humidity;BMP_temperature;BMP_pressure;BME280_temperature;BME280_humidity;BME280_pressure;Samples;Min_cycle;Max_cycle;Signal;HPM_P1;HPM_P2
2021/05/13 00:00:43;;;;;;;2.80;2.23;;;14.60;99.90;;;;;;5032199;28;20471;-77
2021/05/13 00:03:11;;;;;;;2.07;1.80;;;14.60;99.90;;;;;;5032260;28;21018;-79
2021/05/13 00:05:39;;;;;;;3.83;2.00;;;14.60;99.90;;;;;;5025057;28;20444;-79
2021/05/13 00:08:07;;;;;;;1.70;1.50;;;14.60;99.90;;;;;;5020508;28;21111;-78
2021/05/13 00:10:35;;;;;;;3.53;1.83;;;14.70;99.90;;;;;;5021948;28;20483;-77
2021/05/13 00:13:05;;;;;;;4.47;1.90;;;14.70;99.90;;;;;;5025540;28;20457;-78
2021/05/13 00:15:35;;;;;;;3.10;1.60;;;14.80;99.90;;;;;;5016486;28;20457;-77
2021/05/13 00:18:04;;;;;;;2.07;1.87;;;14.80;99.90;;;;;;5024766;28;20469;-78
2021/05/13 00:20:35;;;;;;;2.30;1.50;;;14.80;99.90;;;;;;5024377;28;20456;-80
2021/05/13 00:23:02;;;;;;;1.83;1.70;;;14.80;99.90;;;;;;5034690;28;20489;-80
2021/05/13 00:25:30;;;;;;;1.60;1.50;;;14.80;99.90;;;;;;5044748;28;21034;-82
2021/05/13 00:27:58;;;;;;;3.77;2.10;;;14.70;99.90;;;;;;5036095;28;20490;-78
2021/05/13 00:30:25;;;;;;;3.47;1.80;;;14.70;99.90;;;;;;5029531;28;20464;-82
2021/05/13 00:32:53;;;;;;;2.53;1.50;;;14.70;99.90;;;;;;5038266;28;20543;-84
2021/05/13 00:35:23;;;;;;;1.70;1.40;;;14.70;99.90;;;;;;5036644;28;20476;-82
2021/05/13 00:37:50;;;;;;;2.53;1.87;;;14.70;99.90;;;;;;5047145;28;20467;-79
2021/05/13 00:40:20;;;;;;;2.27;1.87;;;14.60;99.90;;;;;;5037101;28;20466;-81
2021/05/13 00:42:48;;;;;;;3.03;2.23;;;14.60;99.90;;;;;;5044286;28;20483;-79
2021/05/13 00:45:18;;;;;;;3.70;1.67;;;14.60;99.90;;;;;;5020724;28;20468;-79
2021/05/13 00:47:49;;;;;;;3.00;1.70;;;14.60;99.90;;;;;;5026981;28;20472;-80
2021/05/13 00:50:17;;;;;;;5.97;2.00;;;14.50;99.90;;;;;;5027422;28;20978;-76
2021/05/13 00:52:46;;;;;;;4.07;2.37;;;14.50;99.90;;;;;;5025311;28;20455;-78
2021/05/13 00:55:16;;;;;;;2.60;1.60;;;14.50;99.90;;;;;;5022371;28;20467;-83
2021/05/13 00:57:47;;;;;;;3.67;2.20;;;14.50;99.90;;;;;;5021955;28;20461;-79
2021/05/13 01:03:14;;;;;;;4.60;1.90;;;14.50;99.90;;;;;;4984745;28;20857;-79
2021/05/13 01:05:42;;;;;;;2.10;2.00;;;14.50;99.90;;;;;;5007888;28;20492;-79
2021/05/13 01:08:10;;;;;;;2.30;2.10;;;14.50;99.90;;;;;;5014924;28;20467;-79
2021/05/13 01:10:39;;;;;;;1.70;1.60;;;14.50;99.90;;;;;;5024740;28;20476;-80
2021/05/13 01:13:08;;;;;;;2.90;1.97;;;14.50;99.90;;;;;;5030186;28;20466;-80
2021/05/13 01:15:40;;;;;;;3.77;2.20;;;14.50;99.90;;;;;;5022610;28;20486;-79
2021/05/13 01:18:13;;;;;;;2.23;2.03;;;14.50;99.90;;;;;;5022796;28;20473;-79
2021/05/13 01:20:41;;;;;;;5.23;2.17;;;14.50;99.90;;;;;;5025235;28;20478;-78
2021/05/13 01:23:13;;;;;;;2.03;1.70;;;14.50;99.90;;;;;;5028181;28;20452;-79
2021/05/13 01:25:47;;;;;;;2.70;1.93;;;14.50;99.90;;;;;;5026016;28;20481;-77
2021/05/13 01:28:15;;;;;;;6.47;2.47;;;14.50;99.90;;;;;;5018331;28;20544;-79
2021/05/13 01:30:44;;;;;;;4.33;2.13;;;14.50;99.90;;;;;;5022710;28;20483;-78
2021/05/13 01:33:12;;;;;;;3.93;1.80;;;14.40;99.90;;;;;;5022274;28;22678;-77
2021/05/13 01:35:40;;;;;;;2.60;1.90;;;14.50;99.90;;;;;;5020517;28;20796;-78
2021/05/13 01:38:11;;;;;;;3.53;1.90;;;14.50;99.90;;;;;;5057065;28;20550;-79
2021/05/13 01:40:40;;;;;;;3.00;1.90;;;14.50;99.90;;;;;;5035482;28;20483;-80
2021/05/13 01:43:07;;;;;;;4.00;2.10;;;14.50;99.90;;;;;;5036396;28;20494;-81
2021/05/13 01:45:35;;;;;;;1.60;1.50;;;14.50;99.90;;;;;;5033569;28;20968;-81
2021/05/13 01:48:04;;;;;;;3.30;2.37;;;14.50;99.90;;;;;;5026278;28;20528;-79
2021/05/13 01:50:34;;;;;;;1.60;1.50;;;14.50;99.90;;;;;;5032499;28;20487;-80
2021/05/13 01:53:05;;;;;;;1.70;1.60;;;14.40;99.90;;;;;;5024983;28;20452;-80
2021/05/13 01:55:36;;;;;;;2.73;1.60;;;14.40;99.90;;;;;;5017517;28;20920;-80
2021/05/13 01:58:04;;;;;;;2.20;2.00;;;14.30;99.90;;;;;;5031782;28;20462;-78
2021/05/13 02:00:32;;;;;;;2.37;1.77;;;14.30;99.90;;;;;;5031383;28;20455;-79
2021/05/13 02:03:00;;;;;;;11.13;2.20;;;14.30;99.90;;;;;;5024882;28;20515;-81
2021/05/13 02:05:28;;;;;;;3.17;2.03;;;14.20;99.90;;;;;;5033517;28;20445;-78
2021/05/13 02:07:55;;;;;;;2.60;1.80;;;14.20;99.90;;;;;;5023562;28;21681;-81
2021/05/13 02:10:23;;;;;;;5.77;2.07;;;14.20;99.90;;;;;;5028048;28;20937;-79
2021/05/13 02:12:52;;;;;;;1.60;1.50;;;14.20;99.90;;;;;;5030530;28;20488;-79
2021/05/13 02:15:20;;;;;;;2.10;1.90;;;14.20;99.90;;;;;;5033666;28;20462;-78
2021/05/13 02:17:50;;;;;;;1.80;1.70;;;14.10;99.90;;;;;;5022853;28;20459;-78
2021/05/13 02:20:20;;;;;;;1.93;1.80;;;14.10;99.90;;;;;;5026023;28;20514;-78
2021/05/13 02:22:48;;;;;;;3.40;1.70;;;14.00;99.90;;;;;;5025985;28;20496;-79
2021/05/13 02:25:16;;;;;;;1.70;1.60;;;13.90;99.90;;;;;;5033817;28;20883;-82
2021/05/13 02:27:43;;;;;;;3.50;1.80;;;14.00;99.90;;;;;;5025576;28;20526;-79
2021/05/13 02:30:14;;;;;;;2.40;2.10;;;14.00;99.90;;;;;;5029913;28;21060;-81
2021/05/13 02:32:42;;;;;;;3.30;2.23;;;13.90;99.90;;;;;;5038933;28;20530;-78
2021/05/13 02:35:11;;;;;;;1.80;1.70;;;13.90;99.90;;;;;;5036215;28;20470;-81
2021/05/13 02:37:39;;;;;;;3.53;1.97;;;13.90;99.90;;;;;;5031109;28;20651;-79
2021/05/13 02:40:08;;;;;;;2.17;1.63;;;13.90;99.90;;;;;;5029119;28;20453;-79
2021/05/13 02:42:37;;;;;;;1.80;1.53;;;13.90;99.90;;;;;;5029337;28;20487;-80
2021/05/13 02:45:06;;;;;;;2.93;1.70;;;13.90;99.90;;;;;;5023552;28;20531;-79
2021/05/13 02:47:35;;;;;;;3.40;2.67;;;13.80;99.90;;;;;;5021805;28;20456;-79
2021/05/13 02:50:04;;;;;;;2.97;1.50;;;13.80;99.90;;;;;;5031724;28;20878;-79
2021/05/13 02:52:32;;;;;;;1.83;1.70;;;13.80;99.90;;;;;;5028731;28;20516;-78
2021/05/13 02:54:59;;;;;;;2.47;1.43;;;13.70;99.90;;;;;;5025660;28;20477;-79
2021/05/13 02:57:27;;;;;;;2.80;1.40;;;13.70;99.90;;;;;;5020105;28;20480;-79
2021/05/13 03:00:00;;;;;;;3.40;1.80;;;13.60;99.90;;;;;;5023889;28;20486;-80
2021/05/13 03:02:28;;;;;;;1.57;1.40;;;13.50;99.90;;;;;;5029774;28;20518;-79
2021/05/13 03:04:56;;;;;;;1.90;1.47;;;13.50;99.90;;;;;;5030042;28;20988;-81
2021/05/13 03:07:24;;;;;;;1.73;1.40;;;13.50;99.90;;;;;;5027187;28;20492;-80
2021/05/13 03:09:55;;;;;;;2.53;1.63;;;13.50;99.90;;;;;;5030043;28;20444;-79
2021/05/13 03:12:23;;;;;;;3.07;1.40;;;13.50;99.90;;;;;;5076321;28;20499;-82
2021/05/13 03:14:51;;;;;;;5.60;1.57;;;13.40;99.90;;;;;;5029738;28;20467;-81
2021/05/13 03:17:19;;;;;;;2.40;1.77;;;13.40;99.90;;;;;;5030403;28;20465;-82
2021/05/13 03:19:51;;;;;;;2.50;2.30;;;13.40;99.90;;;;;;5025996;28;20481;-76
2021/05/13 03:22:19;;;;;;;2.40;2.20;;;13.40;99.90;;;;;;5027049;28;20222;-78
2021/05/13 03:24:50;;;;;;;3.23;2.37;;;13.40;99.90;;;;;;5029589;28;20940;-79
2021/05/13 03:27:28;;;;;;;2.30;2.10;;;13.40;99.90;;;;;;5029017;28;20462;-79
2021/05/13 03:29:56;;;;;;;3.40;2.57;;;13.40;99.90;;;;;;5038180;28;20545;-79
2021/05/13 03:32:24;;;;;;;4.07;3.30;;;13.40;99.90;;;;;;5029847;28;20553;-77
2021/05/13 03:34:52;;;;;;;5.00;3.80;;;13.50;99.90;;;;;;5028641;28;20468;-78
2021/05/13 03:37:25;;;;;;;2.77;2.03;;;13.40;99.90;;;;;;5028806;28;20456;-79
2021/05/13 03:39:53;;;;;;;3.17;2.63;;;13.40;99.90;;;;;;5024901;28;20536;-79
2021/05/13 03:42:21;;;;;;;3.43;1.80;;;13.30;99.90;;;;;;5018044;28;20574;-79
2021/05/13 03:44:48;;;;;;;2.27;2.07;;;13.30;99.90;;;;;;5028910;28;20536;-80
2021/05/13 03:47:16;;;;;;;2.90;2.33;;;13.30;99.90;;;;;;5029531;28;20458;-78
2021/05/13 03:49:45;;;;;;;4.77;2.83;;;13.20;99.90;;;;;;5027073;28;20465;-78
2021/05/13 03:52:12;;;;;;;4.30;2.97;;;13.20;99.90;;;;;;5030085;28;20481;-80
2021/05/13 03:54:41;;;;;;;2.70;2.50;;;13.20;99.90;;;;;;5027457;28;20945;-81
2021/05/13 03:57:10;;;;;;;2.33;2.13;;;13.20;99.90;;;;;;5029272;28;20560;-76
2021/05/13 03:59:39;;;;;;;2.37;2.17;;;13.20;99.90;;;;;;5024355;28;20459;-79
2021/05/13 04:02:22;;;;;;;2.63;2.40;;;13.20;99.90;;;;;;5025781;28;20504;-78
2021/05/13 04:04:50;;;;;;;3.60;2.03;;;13.20;99.90;;;;;;5025714;28;20467;-80
2021/05/13 04:07:18;;;;;;;2.53;2.33;;;13.30;99.90;;;;;;5025017;28;21160;-78
2021/05/13 04:09:46;;;;;;;2.47;2.27;;;13.20;99.90;;;;;;5029504;28;21034;-79
2021/05/13 04:12:14;;;;;;;3.73;2.73;;;13.20;99.90;;;;;;5046625;28;20532;-80
2021/05/13 04:14:42;;;;;;;3.50;2.80;;;13.20;99.90;;;;;;5027419;28;20462;-77
2021/05/13 04:17:09;;;;;;;4.47;2.80;;;13.20;99.90;;;;;;5035397;28;20509;-78
2021/05/13 04:19:37;;;;;;;5.27;3.00;;;13.10;99.90;;;;;;5024709;28;20549;-76
2021/05/13 04:22:05;;;;;;;6.00;3.10;;;13.20;99.90;;;;;;5029247;28;20497;-77
2021/05/13 04:24:32;;;;;;;2.43;2.23;;;13.20;99.90;;;;;;5028395;28;20464;-77
2021/05/13 04:27:01;;;;;;;3.87;2.40;;;13.20;99.90;;;;;;5028752;28;20465;-80
2021/05/13 04:29:28;;;;;;;3.23;3.00;;;13.20;99.90;;;;;;5023937;28;20514;-78
2021/05/13 04:31:56;;;;;;;2.83;2.63;;;13.20;99.90;;;;;;5024710;28;20475;-77
2021/05/13 04:34:24;;;;;;;3.03;2.77;;;13.20;99.90;;;;;;5022962;28;20463;-77
2021/05/13 04:36:52;;;;;;;3.53;3.23;;;13.20;99.90;;;;;;5025755;28;20466;-79
2021/05/13 04:39:20;;;;;;;4.40;2.37;;;13.30;99.90;;;;;;5024614;28;20540;-80
2021/05/13 04:41:50;;;;;;;2.83;2.63;;;13.30;99.90;;;;;;5025189;28;20932;-79
2021/05/13 04:44:18;;;;;;;3.43;3.13;;;13.20;1.00;;;;;;5026696;28;21061;-80
2021/05/13 04:46:46;;;;;;;4.83;3.00;;;13.10;1.00;;;;;;5023382;28;22658;-79
2021/05/13 04:49:17;;;;;;;3.03;2.73;;;13.00;1.00;;;;;;5029301;28;20518;-79
2021/05/13 04:51:47;;;;;;;2.97;2.53;;;13.10;1.00;;;;;;5027948;28;20498;-79
2021/05/13 04:54:17;;;;;;;2.50;2.30;;;13.10;1.00;;;;;;5030042;28;20466;-79
2021/05/13 04:56:46;;;;;;;3.27;2.67;;;13.20;1.00;;;;;;5028113;28;20450;-81
2021/05/13 04:59:13;;;;;;;7.20;3.80;;;13.30;1.00;;;;;;5024579;28;20818;-80
2021/05/13 05:01:42;;;;;;;4.77;3.47;;;13.20;1.00;;;;;;5026308;28;20509;-78
2021/05/13 05:04:10;;;;;;;4.27;3.20;;;13.20;1.00;;;;;;5026239;28;20515;-80
2021/05/13 05:06:38;;;;;;;3.57;3.23;;;13.20;1.00;;;;;;5028072;28;20531;-78
2021/05/13 05:09:06;;;;;;;3.90;3.60;;;13.30;1.00;;;;;;5027189;28;20452;-79
2021/05/13 05:11:33;;;;;;;3.57;3.27;;;13.30;1.00;;;;;;5038605;28;20990;-81
2021/05/13 05:14:02;;;;;;;3.53;3.23;;;13.30;1.00;;;;;;5033478;28;20857;-79
2021/05/13 05:16:29;;;;;;;6.87;4.03;;;13.30;1.00;;;;;;5045360;28;20970;-79
2021/05/13 05:18:58;;;;;;;3.73;3.43;;;13.30;1.00;;;;;;5033108;28;20463;-80
2021/05/13 05:21:26;;;;;;;3.67;3.40;;;13.30;1.00;;;;;;5032960;28;20490;-80
2021/05/13 05:23:54;;;;;;;4.47;3.50;;;13.30;1.00;;;;;;5032313;28;21184;-81
2021/05/13 05:26:21;;;;;;;3.83;3.47;;;13.20;1.00;;;;;;5034701;28;20494;-75
2021/05/13 05:28:49;;;;;;;3.50;3.20;;;13.30;1.00;;;;;;5033508;28;20457;-79
2021/05/13 05:31:16;;;;;;;4.13;3.80;;;13.30;1.00;;;;;;5033375;28;20571;-80
2021/05/13 05:33:44;;;;;;;3.93;2.87;;;13.30;1.00;;;;;;5030517;28;20446;-80
2021/05/13 05:36:13;;;;;;;7.00;3.50;;;13.40;1.00;;;;;;5034519;28;20455;-78
2021/05/13 05:38:40;;;;;;;4.77;4.00;;;13.40;1.00;;;;;;5025942;28;20471;-79
2021/05/13 05:41:08;;;;;;;4.33;3.93;;;13.40;1.00;;;;;;5034475;28;20474;-79
2021/05/13 05:43:36;;;;;;;4.03;3.73;;;13.40;1.00;;;;;;5023069;28;20492;-79
2021/05/13 05:46:04;;;;;;;5.90;4.10;;;13.40;1.00;;;;;;5017078;28;20462;-77
2021/05/13 05:48:32;;;;;;;3.50;3.27;;;13.50;1.00;;;;;;5019334;28;20459;-78
2021/05/13 05:50:59;;;;;;;4.67;3.90;;;13.50;1.00;;;;;;5018737;28;20473;-78
2021/05/13 05:53:28;;;;;;;4.90;3.97;;;13.50;1.00;;;;;;5019157;28;20570;-76
2021/05/13 05:55:56;;;;;;;4.10;3.80;;;13.60;1.00;;;;;;5015977;28;20463;-78
2021/05/13 05:58:24;;;;;;;5.63;3.72;;;13.60;1.00;;;;;;5021146;28;21067;-77
2021/05/13 06:00:52;;;;;;;6.67;3.30;;;13.70;1.00;;;;;;5016933;28;20313;-81
2021/05/13 06:03:20;;;;;;;3.77;3.30;;;13.80;1.00;;;;;;5021181;28;20471;-81
2021/05/13 06:05:49;;;;;;;3.50;3.30;;;13.90;1.00;;;;;;5020016;28;20803;-80
2021/05/13 06:08:16;;;;;;;3.13;2.80;;;14.00;1.00;;;;;;5021994;28;20465;-79
2021/05/13 06:10:45;;;;;;;3.57;3.17;;;14.00;1.00;;;;;;5025462;28;21158;-80
2021/05/13 06:13:12;;;;;;;3.40;3.10;;;14.10;1.00;;;;;;5038507;28;20457;-79
2021/05/13 06:15:40;;;;;;;8.67;4.20;;;14.00;1.00;;;;;;5021342;28;20468;-78
2021/05/13 06:18:08;;;;;;;3.37;3.07;;;14.00;1.00;;;;;;5015095;28;20453;-76
2021/05/13 06:20:36;;;;;;;3.80;3.33;;;14.00;1.00;;;;;;5015426;28;21445;-79
2021/05/13 06:23:05;;;;;;;4.93;2.90;;;14.10;1.00;;;;;;5019869;28;20572;-78
2021/05/13 06:25:32;;;;;;;5.77;3.60;;;14.10;1.00;;;;;;5027335;28;20462;-78
2021/05/13 06:28:01;;;;;;;4.57;2.80;;;14.10;1.00;;;;;;5025104;28;20615;-81
2021/05/13 06:30:29;;;;;;;4.00;2.63;;;14.20;1.00;;;;;;5022254;28;20541;-78
2021/05/13 06:32:57;;;;;;;4.00;3.70;;;14.20;1.00;;;;;;5023150;28;20448;-78
2021/05/13 06:35:24;;;;;;;3.80;3.23;;;14.30;1.00;;;;;;5029066;28;20471;-78
2021/05/13 06:37:52;;;;;;;5.80;4.07;;;14.40;1.00;;;;;;5021122;28;20452;-78
2021/05/13 06:40:19;;;;;;;4.30;3.50;;;14.50;1.00;;;;;;5011643;28;20460;-79
2021/05/13 06:42:47;;;;;;;5.00;3.90;;;14.80;1.00;;;;;;5051924;28;21001;-77
2021/05/13 06:45:16;;;;;;;4.53;3.50;;;15.20;1.00;;;;;;5019249;28;20462;-78
2021/05/13 06:47:44;;;;;;;4.07;3.67;;;15.40;99.90;;;;;;5026502;28;21025;-77
2021/05/13 06:50:13;;;;;;;4.90;4.07;;;15.50;99.90;;;;;;5021499;28;20467;-77
2021/05/13 06:52:40;;;;;;;3.97;3.67;;;15.60;99.90;;;;;;5021209;28;20482;-76
2021/05/13 06:55:09;;;;;;;5.20;3.50;;;15.80;99.90;;;;;;5020986;28;20464;-76
2021/05/13 06:57:37;;;;;;;2.70;2.50;;;16.30;99.90;;;;;;5026335;28;20899;-75
2021/05/13 07:00:05;;;;;;;3.27;3.07;;;16.60;99.90;;;;;;5045079;28;20558;-76
2021/05/13 07:02:35;;;;;;;5.80;3.50;;;16.70;99.90;;;;;;5029498;28;20506;-77
2021/05/13 07:05:04;;;;;;;2.97;2.77;;;17.00;99.90;;;;;;5026601;28;20456;-76
2021/05/13 07:07:34;;;;;;;2.63;2.43;;;16.90;99.90;;;;;;5027088;28;20449;-76
2021/05/13 07:10:03;;;;;;;3.27;2.93;;;16.90;99.90;;;;;;5023566;28;20526;-78
2021/05/13 07:12:30;;;;;;;3.33;2.60;;;17.10;99.90;;;;;;5026476;28;21065;-75
2021/05/13 07:15:01;;;;;;;2.70;2.50;;;17.10;99.90;;;;;;5023166;28;20449;-76
2021/05/13 07:17:29;;;;;;;3.17;2.87;;;17.10;99.90;;;;;;5022390;28;20445;-76
2021/05/13 07:19:57;;;;;;;3.43;3.13;;;17.10;99.90;;;;;;5027841;28;20449;-76
2021/05/13 07:22:25;;;;;;;2.50;2.30;;;17.10;99.90;;;;;;5021275;28;20565;-80
2021/05/13 07:24:53;;;;;;;3.40;2.33;;;17.10;99.90;;;;;;5029331;28;20541;-79
2021/05/13 07:27:21;;;;;;;3.03;2.27;;;17.20;99.90;;;;;;5030765;28;20992;-78
2021/05/13 07:29:49;;;;;;;2.57;1.90;;;17.40;99.90;;;;;;5031430;28;20457;-78
2021/05/13 07:32:16;;;;;;;2.73;1.83;;;17.50;99.90;;;;;;5031293;28;20535;-78
2021/05/13 07:34:44;;;;;;;2.60;1.80;;;17.50;99.90;;;;;;5029937;28;20460;-77
2021/05/13 07:37:12;;;;;;;1.73;1.53;;;17.50;99.90;;;;;;5028930;28;20461;-78
2021/05/13 07:39:41;;;;;;;4.50;2.13;;;17.40;99.90;;;;;;5024957;28;20559;-77
2021/05/13 07:42:08;;;;;;;4.03;1.50;;;17.40;99.90;;;;;;5029145;28;20564;-78
2021/05/13 07:44:36;;;;;;;2.00;1.73;;;17.40;99.90;;;;;;5025542;28;20479;-77
2021/05/13 07:47:04;;;;;;;4.47;1.70;;;17.40;99.90;;;;;;5019164;28;20472;-78
2021/05/13 07:49:33;;;;;;;2.23;1.80;;;17.40;99.90;;;;;;5016021;28;20458;-79
2021/05/13 07:52:01;;;;;;;2.53;1.90;;;17.40;99.90;;;;;;5021705;28;20467;-77
2021/05/13 07:54:29;;;;;;;2.53;1.50;;;17.30;99.90;;;;;;5026343;28;20456;-77
2021/05/13 07:56:57;;;;;;;1.87;1.47;;;17.40;99.90;;;;;;5027689;28;20448;-78
2021/05/13 07:59:25;;;;;;;2.27;1.30;;;17.40;99.90;;;;;;5026477;28;20453;-77
2021/05/13 08:01:53;;;;;;;1.20;1.13;;;17.40;99.90;;;;;;5025157;28;20485;-77
2021/05/13 08:04:21;;;;;;;1.73;1.50;;;17.40;99.90;;;;;;5017090;28;20478;-79
2021/05/13 08:06:49;;;;;;;2.40;1.20;;;17.40;99.90;;;;;;5026857;28;20449;-79
2021/05/13 08:09:17;;;;;;;1.40;1.20;;;17.40;99.90;;;;;;5024410;28;20462;-76
2021/05/13 08:11:45;;;;;;;1.73;1.13;;;17.40;99.90;;;;;;5024067;28;20487;-76
2021/05/13 08:14:13;;;;;;;2.23;1.30;;;17.50;99.90;;;;;;5025767;28;20469;-77
2021/05/13 08:16:41;;;;;;;3.47;1.00;;;17.60;99.90;;;;;;5023444;28;20516;-76
2021/05/13 08:19:08;;;;;;;1.60;0.90;;;17.60;99.90;;;;;;5023172;28;20461;-76
2021/05/13 08:21:36;;;;;;;1.23;1.13;;;17.70;99.90;;;;;;5014666;28;20489;-77
2021/05/13 08:24:05;;;;;;;1.88;1.10;;;17.80;99.90;;;;;;5021578;28;20449;-76
2021/05/13 08:26:32;;;;;;;1.00;0.90;;;17.70;99.90;;;;;;5019227;28;20287;-78
2021/05/13 08:29:01;;;;;;;1.07;0.80;;;17.80;99.90;;;;;;5026064;28;20543;-78
2021/05/13 08:31:29;;;;;;;3.43;1.00;;;17.60;99.90;;;;;;5026699;28;20476;-77
2021/05/13 08:33:57;;;;;;;1.00;0.80;;;17.70;99.90;;;;;;5018116;28;21183;-77
2021/05/13 08:36:24;;;;;;;0.90;0.80;;;17.80;99.90;;;;;;5021092;28;20472;-76
2021/05/13 08:38:52;;;;;;;1.67;1.10;;;17.80;99.90;;;;;;5019521;28;20457;-78
2021/05/13 08:41:20;;;;;;;1.80;1.00;;;17.70;99.90;;;;;;5021071;28;20475;-76
2021/05/13 08:43:51;;;;;;;1.97;0.90;;;17.80;99.90;;;;;;5022515;28;21180;-77
2021/05/13 08:46:21;;;;;;;1.53;1.10;;;17.90;99.90;;;;;;5020122;28;20471;-78
2021/05/13 08:48:50;;;;;;;1.50;1.10;;;18.00;99.90;;;;;;5024931;28;20460;-79
2021/05/13 08:51:18;;;;;;;1.60;0.90;;;18.10;99.90;;;;;;5022162;28;20480;-78
2021/05/13 08:53:50;;;;;;;2.50;0.90;;;18.10;99.90;;;;;;5034129;28;20466;-77
2021/05/13 08:56:17;;;;;;;6.90;0.90;;;18.10;99.90;;;;;;5017247;28;20591;-77
2021/05/13 08:58:45;;;;;;;1.67;0.90;;;18.10;99.90;;;;;;5021839;28;20446;-79
2021/05/13 09:01:17;;;;;;;1.27;1.00;;;18.20;99.90;;;;;;5027034;28;20489;-78
2021/05/13 09:03:47;;;;;;;2.13;0.80;;;18.20;99.90;;;;;;5021126;28;20541;-78
2021/05/13 09:06:23;;;;;;;2.70;1.07;;;18.30;99.90;;;;;;5020365;28;20823;-78
2021/05/13 09:08:50;;;;;;;2.90;0.87;;;18.30;99.90;;;;;;5012594;28;20487;-78
2021/05/13 09:11:18;;;;;;;1.27;0.70;;;18.20;99.90;;;;;;5014401;28;20508;-78
2021/05/13 09:13:59;;;;;;;1.90;1.13;;;18.20;99.90;;;;;;5047614;28;20458;-78
2021/05/13 09:16:31;;;;;;;1.47;0.80;;;18.20;99.90;;;;;;5023715;28;20459;-79
2021/05/13 09:19:00;;;;;;;0.63;0.63;;;18.30;99.90;;;;;;5029605;28;20525;-79
2021/05/13 09:21:28;;;;;;;0.80;0.80;;;18.20;99.90;;;;;;5021779;28;21555;-79
2021/05/13 09:23:55;;;;;;;1.27;0.93;;;18.20;99.90;;;;;;5034154;28;20466;-79
2021/05/13 09:26:23;;;;;;;0.80;0.80;;;18.20;99.90;;;;;;5024947;28;20474;-78
2021/05/13 09:29:09;;;;;;;2.30;0.80;;;18.20;99.90;;;;;;5019379;28;20461;-78
2021/05/13 09:31:40;;;;;;;2.03;0.87;;;18.20;99.90;;;;;;5019429;28;20594;-76
2021/05/13 09:34:10;;;;;;;0.83;0.70;;;18.20;99.90;;;;;;5017635;28;20485;-78
2021/05/13 09:36:39;;;;;;;1.77;0.70;;;18.20;99.90;;;;;;5023190;28;20529;-77
2021/05/13 09:39:23;;;;;;;0.73;0.70;;;18.20;99.90;;;;;;5024318;28;20455;-77
2021/05/13 09:42:01;;;;;;;1.33;0.97;;;18.20;99.90;;;;;;5017622;28;20631;-78
2021/05/13 09:44:34;;;;;;;2.60;1.07;;;18.10;99.90;;;;;;5024529;28;20486;-78
2021/05/13 09:47:16;;;;;;;0.73;0.70;;;18.10;99.90;;;;;;5024733;28;20973;-78
2021/05/13 09:49:56;;;;;;;1.30;0.70;;;18.10;99.90;;;;;;5017726;28;20468;-77
2021/05/13 09:52:45;;;;;;;0.77;0.77;;;18.10;99.90;;;;;;5021146;28;20524;-78
2021/05/13 09:55:19;;;;;;;1.40;1.03;;;18.00;99.90;;;;;;5027442;28;20453;-78
2021/05/13 09:57:52;;;;;;;5.60;1.70;;;18.00;99.90;;;;;;5022500;28;20455;-74
2021/05/13 10:00:35;;;;;;;5.17;2.93;;;17.90;99.90;;;;;;5021826;28;20450;-70
2021/05/13 10:03:07;;;;;;;4.30;2.60;;;17.90;99.90;;;;;;5015428;28;20528;-71
2021/05/13 10:05:35;;;;;;;2.10;1.03;;;18.00;99.90;;;;;;5020866;28;21891;-71
2021/05/13 10:08:03;;;;;;;1.50;1.10;;;18.00;99.90;;;;;;5022416;28;20466;-72
2021/05/13 10:10:37;;;;;;;4.70;1.30;;;18.00;99.90;;;;;;5028860;28;20465;-73
2021/05/13 10:13:06;;;;;;;1.70;0.90;;;18.10;99.90;;;;;;5027757;28;21161;-71
2021/05/13 10:15:37;;;;;;;1.10;0.80;;;18.10;99.90;;;;;;5019010;28;20443;-73
2021/05/13 10:18:21;;;;;;;4.20;0.87;;;18.10;99.90;;;;;;5029467;28;20501;-76
2021/05/13 10:20:55;;;;;;;2.80;0.93;;;18.10;99.90;;;;;;5026313;28;20478;-75
2021/05/13 10:23:23;;;;;;;1.20;0.63;;;17.80;99.90;;;;;;5063725;28;20776;-79
2021/05/13 10:25:52;;;;;;;1.90;0.77;;;17.60;99.90;;;;;;5027520;28;20537;-78
2021/05/13 10:28:28;;;;;;;1.30;1.20;;;17.50;99.90;;;;;;5026900;28;20835;-79
2021/05/13 10:31:02;;;;;;;2.50;1.20;;;17.50;99.90;;;;;;5025382;28;20485;-80
2021/05/13 10:33:45;;;;;;;1.13;0.70;;;17.50;99.90;;;;;;5029738;28;20857;-80
2021/05/13 10:36:16;;;;;;;1.07;0.83;;;17.50;99.90;;;;;;5030201;28;20887;-78
2021/05/13 10:38:47;;;;;;;1.60;0.70;;;17.50;99.90;;;;;;5030741;28;20460;-78
2021/05/13 10:41:35;;;;;;;2.50;0.70;;;17.50;99.90;;;;;;5028762;28;20555;-78
2021/05/13 10:44:46;;;;;;;2.93;0.83;;;17.40;99.90;;;;;;5026970;28;21088;-78
2021/05/13 10:47:27;;;;;;;2.23;0.70;;;17.30;99.90;;;;;;5013065;28;20993;-79
2021/05/13 10:49:56;;;;;;;1.27;0.70;;;17.30;99.90;;;;;;5029012;28;20474;-78
2021/05/13 10:52:37;;;;;;;0.87;0.80;;;17.20;99.90;;;;;;5026907;28;20483;-74
2021/05/13 10:55:07;;;;;;;1.07;0.70;;;17.10;99.90;;;;;;5028011;28;20489;-72
2021/05/13 10:57:51;;;;;;;0.90;0.70;;;17.00;99.90;;;;;;5027263;28;20473;-76
2021/05/13 11:00:27;;;;;;;0.70;0.70;;;17.10;99.90;;;;;;5028698;28;20464;-75
2021/05/13 11:02:55;;;;;;;0.73;0.70;;;17.20;99.90;;;;;;5027919;28;20466;-76
2021/05/13 11:05:41;;;;;;;2.43;0.70;;;17.40;99.90;;;;;;5029960;28;20562;-74
2021/05/13 11:08:27;;;;;;;0.50;0.50;;;17.50;99.90;;;;;;5027053;28;20494;-76
2021/05/13 11:11:01;;;;;;;1.73;0.60;;;17.70;99.90;;;;;;5028481;28;20476;-75
2021/05/13 11:13:40;;;;;;;0.60;0.60;;;17.50;99.90;;;;;;5027791;28;20800;-75
2021/05/13 11:16:43;;;;;;;0.60;0.60;;;17.40;99.90;;;;;;5027559;28;20503;-74
2021/05/13 11:19:22;;;;;;;1.00;0.67;;;17.30;99.90;;;;;;5023721;28;20468;-75
2021/05/13 11:22:01;;;;;;;1.57;0.53;;;17.50;99.90;;;;;;5022990;28;20481;-75
2021/05/13 11:24:34;;;;;;;1.63;0.70;;;17.50;99.90;;;;;;5030188;28;20467;-75
2021/05/13 11:27:03;;;;;;;1.67;0.70;;;17.50;99.90;;;;;;5022326;28;20473;-73
2021/05/13 11:29:44;;;;;;;1.63;0.90;;;17.40;99.90;;;;;;5024405;28;20466;-75
2021/05/13 11:32:13;;;;;;;0.80;0.80;;;17.40;99.90;;;;;;5022161;28;21098;-74
2021/05/13 11:34:45;;;;;;;1.10;0.90;;;17.40;99.90;;;;;;5026463;28;20955;-75
2021/05/13 11:37:36;;;;;;;0.70;0.70;;;17.50;99.90;;;;;;5028409;28;20462;-75
2021/05/13 11:40:27;;;;;;;0.70;0.70;;;17.40;99.90;;;;;;5026616;28;20469;-73
2021/05/13 11:43:14;;;;;;;1.50;0.70;;;17.40;99.90;;;;;;5020963;28;20807;-73
2021/05/13 11:45:42;;;;;;;0.80;0.80;;;17.30;99.90;;;;;;5027823;28;20476;-73
2021/05/13 11:48:37;;;;;;;3.20;1.65;;;17.40;99.90;;;;;;5028038;28;20457;-75
2021/05/13 11:51:08;;;;;;;1.43;0.90;;;17.40;99.90;;;;;;5002548;28;20235;-74
2021/05/13 11:53:37;;;;;;;1.80;1.00;;;17.30;99.90;;;;;;5029377;28;20513;-75
2021/05/13 11:56:07;;;;;;;2.30;1.50;;;17.30;99.90;;;;;;5028172;28;20466;-75
2021/05/13 11:58:39;;;;;;;11.50;4.00;;;17.30;99.90;;;;;;5030097;28;20459;-75
2021/05/13 12:01:22;;;;;;;6.23;2.20;;;17.40;99.90;;;;;;5024490;28;20477;-76
2021/05/13 12:03:58;;;;;;;1.13;0.80;;;17.30;99.90;;;;;;5023695;28;20461;-75
2021/05/13 12:06:27;;;;;;;1.80;1.10;;;17.30;99.90;;;;;;5028639;28;20752;-75
2021/05/13 12:08:55;;;;;;;1.27;0.70;;;17.40;99.90;;;;;;5026724;28;20485;-75
2021/05/13 12:11:25;;;;;;;1.20;0.90;;;17.40;99.90;;;;;;5029100;28;20481;-76
2021/05/13 12:13:54;;;;;;;1.30;0.90;;;17.40;99.90;;;;;;5027190;28;20462;-75
2021/05/13 12:16:23;;;;;;;0.70;0.70;;;17.50;99.90;;;;;;5022418;28;21032;-75
2021/05/13 12:18:55;;;;;;;0.70;0.70;;;17.50;99.90;;;;;;5017215;28;20466;-75
2021/05/13 12:21:23;;;;;;;0.70;0.70;;;17.50;99.90;;;;;;5022923;28;20528;-76
2021/05/13 12:23:51;;;;;;;0.60;0.60;;;17.50;99.90;;;;;;5023211;28;20466;-75
2021/05/13 12:26:24;;;;;;;1.90;0.83;;;17.50;99.90;;;;;;5027707;28;20839;-76
2021/05/13 12:28:53;;;;;;;0.87;0.80;;;17.50;99.90;;;;;;5026263;28;20482;-75
2021/05/13 12:31:25;;;;;;;2.03;1.00;;;17.50;99.90;;;;;;5029842;28;21062;-75
2021/05/13 12:33:53;;;;;;;1.20;1.00;;;17.50;99.90;;;;;;5025418;28;21127;-77
2021/05/13 12:36:20;;;;;;;1.23;0.67;;;17.50;99.90;;;;;;5024524;28;20455;-75
2021/05/13 12:38:49;;;;;;;1.20;0.63;;;17.60;99.90;;;;;;5018225;28;20451;-73
2021/05/13 12:41:20;;;;;;;0.90;0.70;;;17.60;99.90;;;;;;5026438;28;20478;-72
2021/05/13 12:43:50;;;;;;;0.97;0.70;;;17.50;99.90;;;;;;5017520;28;20468;-74
2021/05/13 12:46:20;;;;;;;0.80;0.70;;;17.50;99.90;;;;;;5026761;28;20500;-75
2021/05/13 12:48:48;;;;;;;0.98;0.88;;;17.50;99.90;;;;;;5032818;28;20440;-74
2021/05/13 12:51:18;;;;;;;0.90;0.57;;;17.60;99.90;;;;;;5030891;28;20229;-74
2021/05/13 12:53:48;;;;;;;1.43;0.63;;;17.50;99.90;;;;;;5028329;28;20453;-75
2021/05/13 12:56:23;;;;;;;1.47;0.77;;;17.50;99.90;;;;;;5028998;28;20446;-73
2021/05/13 12:59:08;;;;;;;2.50;1.10;;;17.60;99.90;;;;;;5029044;28;20965;-75
2021/05/13 13:01:38;;;;;;;1.37;0.80;;;17.70;99.90;;;;;;5029764;28;20474;-74
2021/05/13 13:04:07;;;;;;;2.53;0.97;;;17.70;99.90;;;;;;5029286;28;20470;-75
2021/05/13 13:06:47;;;;;;;0.70;0.60;;;17.80;99.90;;;;;;5030430;28;20486;-75